ADT,Max TemperatureF,Mean TemperatureF,Min TemperatureF,Max Dew PointF,MeanDew PointF,Min DewpointF,Max Humidity, Mean Humidity, Min Humidity, Max Sea Level PressureIn, Mean Sea Level PressureIn, Min Sea Level PressureIn, Max VisibilityMiles, Mean VisibilityMiles, Min VisibilityMiles, Max Wind SpeedMPH, Mean Wind SpeedMPH, Max Gust SpeedMPH,PrecipitationIn, CloudCover, Events, WindDirDegrees
2012-10-1,68,65,62,66,62,58,94,91,80,29.93,29.86,29.82,8,3,1,37,19,47,0.24,5,Rain,190
2012-10-2,66,64,61,60,56,54,88,78,65,29.95,29.89,29.81,9,8,5,25,20,32,0.00,4,,261
2012-10-3,66,62,57,59,57,50,88,78,60,30.06,29.99,29.95,9,8,6,30,16,37,0.02,1,,303
2012-10-4,61,59,57,54,53,50,82,76,67,30.10,30.07,30.05,9,8,7,23,20,30,0.00,7,,357
2012-10-5,63,59,53,55,53,49,88,81,65,30.05,29.96,29.90,9,9,6,8,5,,0.00,7,Rain,58
2012-10-6,65,58,51,54,52,48,88,74,57,30.01,29.98,29.95,9,9,9,14,5,,0.00,6,,119
2012-10-7,69,64,59,63,60,54,100,90,69,30.06,30.03,29.95,9,4,0,17,10,21,0.00,4,,189
2012-10-8,69,64,58,64,59,48,100,89,65,30.27,30.03,29.94,9,4,0,30,10,33,0.02,6,Rain,171
2012-10-9,57,55,53,55,50,44,94,82,58,30.40,30.27,30.13,9,8,2,24,13,28,0.12,6,Rain,61
2012-10-10,60,58,55,59,55,52,94,88,76,30.13,30.04,29.92,9,7,2,29,21,34,0.02,8,Rain,76
2012-10-11,66,60,55,64,57,37,100,84,44,30.06,29.78,29.66,9,4,0,36,19,48,0.16,7,Rain,165
2012-10-12,62,57,52,55,47,36,94,70,40,30.13,29.95,29.80,9,8,1,26,17,31,0.02,6,Rain,258
2012-10-13,50,46,42,48,37,28,88,66,32,30.27,29.98,29.81,9,9,2,32,26,43,0.02,7,Rain,314
2012-10-14,57,52,46,55,44,30,94,74,38,30.34,30.23,30.11,9,7,2,20,13,28,0.04,8,Rain,242
2012-10-15,65,58,52,60,57,55,100,91,76,30.12,30.04,29.99,7,4,2,23,16,30,0.00,7,Rain,230
2012-10-16,66,62,59,64,61,57,100,91,82,29.97,29.69,29.55,7,3,1,37,22,44,0.55,5,Rain,186
2012-10-17,58,54,51,56,48,41,88,77,60,29.79,29.72,29.64,9,8,3,25,16,33,0.00,6,Rain,318
2012-10-18,54,51,44,45,43,39,81,71,58,30.25,30.07,29.82,9,9,9,24,16,33,0.00,7,,318
2012-10-19,58,48,39,50,44,36,87,76,56,30.32,30.29,30.25,9,9,9,13,3,,0.00,3,,126
2012-10-20,65,60,54,59,56,50,94,84,69,30.30,30.18,29.99,9,7,5,21,15,,0.08,1,,139
2012-10-21,64,60,57,63,61,54,100,93,77,29.96,29.78,29.65,6,2,1,29,20,37,0.24,7,Rain,179
2012-10-22,60,56,51,55,48,43,94,75,52,29.73,29.69,29.67,9,8,5,21,14,28,0.00,6,Rain,268
2012-10-23,54,51,48,48,41,36,82,67,51,29.87,29.75,29.66,9,9,4,25,16,33,0.02,7,Rain,301
2012-10-24,49,46,44,41,38,35,81,68,51,30.02,29.94,29.87,9,9,3,29,20,34,0.02,7,Rain,316
2012-10-25,48,46,43,39,37,36,76,69,56,30.12,30.06,30.03,9,9,5,32,24,40,0.02,8,Rain,333
2012-10-26,55,50,46,48,42,37,82,70,54,30.07,30.00,29.95,9,7,6,31,25,41,0.04,5,,348
2012-10-27,56,53,50,52,49,46,88,83,74,29.98,29.94,29.90,8,6,5,29,24,37,0.00,8,Rain,14
2012-10-28,56,54,53,54,52,50,94,91,82,29.96,29.93,29.89,9,4,1,29,21,34,0.00,8,Rain,54
2012-10-29,59,56,54,55,54,53,100,92,78,30.06,29.99,29.95,7,3,1,28,21,34,0.00,8,,81
2012-10-30,62,60,57,55,54,54,94,87,76,30.18,30.13,30.04,5,3,2,26,21,36,0.00,3,,96
2012-10-31,62,59,56,59,56,52,100,90,74,30.13,29.91,29.75,5,3,1,25,20,30,0.87,7,Rain,118